Time;durP1;ratioP1;P1;durP2;ratioP2;P2;SDS_P1;SDS_P2;PMS_P1;PMS_P2;Temp;Humidity;BMP_temperature;BMP_pressure;BME280_temperature;BME280_humidity;BME280_pressure;Samples;Min_cycle;Max_cycle;Signal;HPM_P1;HPM_P2
2023/03/10 00:02:55;;;;;;;3.83;2.45;;;18.20;50.50;;;;;;6285182;28;20518;-70
2023/03/10 00:05:55;;;;;;;4.25;2.55;;;18.20;50.50;;;;;;6293458;28;20021;-70
2023/03/10 00:08:56;;;;;;;4.35;2.60;;;18.20;50.50;;;;;;6293753;28;20028;-70
2023/03/10 00:11:57;;;;;;;4.22;2.75;;;18.20;50.50;;;;;;6275402;28;20039;-70
2023/03/10 00:14:57;;;;;;;4.30;2.60;;;18.20;50.50;;;;;;6293665;28;20504;-70
2023/03/10 00:17:58;;;;;;;4.22;2.83;;;18.20;50.30;;;;;;6292813;28;20039;-70
2023/03/10 00:20:59;;;;;;;4.28;2.80;;;18.20;50.50;;;;;;6293495;28;20027;-70
2023/03/10 00:24:00;;;;;;;3.83;2.78;;;18.20;50.50;;;;;;6275051;28;20029;-70
2023/03/10 00:27:00;;;;;;;3.28;2.38;;;18.20;50.40;;;;;;6284697;28;20041;-70
2023/03/10 00:30:01;;;;;;;3.85;2.42;;;18.20;50.50;;;;;;6275172;28;20028;-70
2023/03/10 00:33:02;;;;;;;3.40;2.25;;;18.20;50.50;;;;;;6275105;28;20024;-70
2023/03/10 00:36:08;;;;;;;3.97;2.30;;;18.20;50.50;;;;;;6274650;28;20453;-70
2023/03/10 00:39:09;;;;;;;3.17;2.13;;;18.20;50.40;;;;;;6274605;28;20029;-70
2023/03/10 00:42:10;;;;;;;3.47;2.45;;;18.20;50.50;;;;;;6275268;28;20150;-70
2023/03/10 00:45:11;;;;;;;4.05;2.60;;;18.20;51.20;;;;;;6292361;28;20485;-70
2023/03/10 00:48:12;;;;;;;3.15;2.40;;;18.20;50.50;;;;;;6292963;28;20051;-70
2023/03/10 00:51:13;;;;;;;3.47;2.40;;;18.20;50.50;;;;;;6292576;28;20078;-70
2023/03/10 00:54:14;;;;;;;2.95;1.92;;;18.20;50.50;;;;;;6292833;28;20390;-70
2023/03/10 00:57:14;;;;;;;3.83;2.60;;;18.20;50.50;;;;;;6274569;28;20017;-70
2023/03/10 01:00:16;;;;;;;2.90;2.33;;;18.20;50.50;;;;;;6293042;28;20017;-70
2023/03/10 01:03:17;;;;;;;3.22;2.20;;;18.20;50.50;;;;;;6274222;28;20028;-70
2023/03/10 01:06:18;;;;;;;3.38;2.17;;;18.20;50.50;;;;;;6292389;28;20385;-70
2023/03/10 01:09:19;;;;;;;3.65;2.70;;;18.20;50.30;;;;;;6292666;28;20778;-70
2023/03/10 01:12:20;;;;;;;3.53;2.20;;;18.20;50.50;;;;;;6292575;28;20028;-70
2023/03/10 01:15:21;;;;;;;3.08;2.22;;;18.20;50.40;;;;;;6292954;28;20048;-70
2023/03/10 01:18:22;;;;;;;2.75;2.17;;;18.20;50.50;;;;;;6274583;28;20029;-70
2023/03/10 01:21:30;;;;;;;3.25;2.20;;;18.20;50.40;;;;;;6275445;28;20028;-70
2023/03/10 01:24:30;;;;;;;2.97;2.15;;;18.20;50.40;;;;;;6299002;28;20694;-70
2023/03/10 01:27:31;;;;;;;3.25;2.22;;;18.20;50.50;;;;;;6317278;28;20027;-70
2023/03/10 01:30:32;;;;;;;3.00;2.00;;;18.20;50.50;;;;;;6299372;28;20110;-70
2023/03/10 01:33:40;;;;;;;4.30;2.50;;;18.20;50.50;;;;;;6315552;28;20020;-70
2023/03/10 01:36:41;;;;;;;1.92;1.58;;;18.20;50.40;;;;;;6292603;28;20783;-70
2023/03/10 01:39:42;;;;;;;3.13;2.25;;;18.20;50.50;;;;;;6291989;28;20032;-70
2023/03/10 01:42:42;;;;;;;3.58;2.05;;;18.20;50.50;;;;;;6292044;28;20052;-71
2023/03/10 01:45:43;;;;;;;2.58;2.03;;;18.20;50.50;;;;;;6274066;28;20508;-70
2023/03/10 01:48:44;;;;;;;4.20;2.70;;;18.20;50.50;;;;;;6274381;28;20070;-70
2023/03/10 01:51:52;;;;;;;2.95;2.08;;;18.20;50.40;;;;;;6278892;28;20092;-70
2023/03/10 01:55:12;;;;;;;2.63;1.73;;;18.20;50.40;;;;;;6278428;28;20050;-70
2023/03/10 01:58:15;;;;;;;3.25;2.05;;;18.10;50.40;;;;;;6296668;28;20047;-70
2023/03/10 02:01:17;;;;;;;2.58;1.90;;;18.20;50.40;;;;;;6279065;28;20035;-70
2023/03/10 02:04:29;;;;;;;3.45;2.03;;;18.20;50.50;;;;;;6296835;28;20107;-70
2023/03/10 02:07:30;;;;;;;2.80;1.95;;;18.20;50.50;;;;;;6296559;28;20078;-70
2023/03/10 02:10:31;;;;;;;2.88;2.33;;;18.20;50.40;;;;;;6296306;28;20025;-70
2023/03/10 02:13:32;;;;;;;3.00;1.95;;;18.20;50.50;;;;;;6296572;28;20025;-70
2023/03/10 02:16:33;;;;;;;3.10;2.00;;;18.20;50.50;;;;;;6296201;28;20036;-70
2023/03/10 02:20:09;;;;;;;3.22;2.22;;;18.20;50.30;;;;;;6278435;28;20025;-70
2023/03/10 02:23:14;;;;;;;;;;;18.20;50.40;;;;;;6296912;28;20024;-70
2023/03/10 02:26:28;;;;;;;3.10;1.83;;;18.20;50.40;;;;;;6296216;28;19988;-70
2023/03/10 02:29:47;;;;;;;3.72;1.98;;;18.20;50.50;;;;;;6296271;28;20051;-70
2023/03/10 02:32:56;;;;;;;2.80;1.98;;;18.20;50.40;;;;;;6296234;28;20017;-70
2023/03/10 02:36:15;;;;;;;2.65;2.20;;;18.20;51.10;;;;;;6295524;28;20051;-70
2023/03/10 02:39:16;;;;;;;3.05;2.08;;;18.20;50.40;;;;;;6295862;28;20021;-70
2023/03/10 02:42:18;;;;;;;3.05;2.00;;;18.20;50.50;;;;;;6295875;28;20028;-70
2023/03/10 02:45:19;;;;;;;3.45;2.25;;;18.20;50.50;;;;;;6295619;28;20367;-70
2023/03/10 02:48:27;;;;;;;2.47;1.95;;;18.20;50.50;;;;;;6295676;28;20024;-70
2023/03/10 02:51:34;;;;;;;3.03;2.08;;;18.20;50.40;;;;;;6269610;28;20067;-70
2023/03/10 02:54:35;;;;;;;2.83;2.03;;;18.20;50.40;;;;;;6295843;28;20563;-71
2023/03/10 02:57:35;;;;;;;2.40;1.75;;;18.20;50.50;;;;;;6295602;28;20020;-70
2023/03/10 03:00:41;;;;;;;2.13;1.80;;;18.20;50.50;;;;;;6294706;28;20082;-70
2023/03/10 03:03:42;;;;;;;3.92;2.13;;;18.20;50.50;;;;;;6294688;28;20128;-70
2023/03/10 03:06:42;;;;;;;2.55;1.83;;;18.20;50.50;;;;;;6277291;28;20025;-70
2023/03/10 03:09:43;;;;;;;2.00;1.80;;;18.20;50.40;;;;;;6295240;28;20024;-70
2023/03/10 03:12:44;;;;;;;3.13;2.00;;;18.20;50.50;;;;;;6277408;28;20521;-70
2023/03/10 03:15:45;;;;;;;2.80;2.00;;;18.20;50.60;;;;;;6295184;28;20479;-70
2023/03/10 03:18:46;;;;;;;2.63;1.88;;;18.20;50.40;;;;;;6276913;28;20063;-69
2023/03/10 03:21:48;;;;;;;2.40;1.73;;;18.10;50.20;;;;;;6295159;28;20103;-70
2023/03/10 03:24:49;;;;;;;2.65;2.00;;;18.20;50.40;;;;;;6294572;28;20041;-70
2023/03/10 03:27:50;;;;;;;3.35;2.08;;;18.20;50.50;;;;;;6276693;28;20020;-70
2023/03/10 03:30:51;;;;;;;3.30;2.35;;;18.10;50.30;;;;;;6294610;28;20021;-70
2023/03/10 03:33:52;;;;;;;2.72;1.88;;;18.20;50.50;;;;;;6294631;28;20456;-71
2023/03/10 03:36:53;;;;;;;2.95;1.85;;;18.10;50.40;;;;;;6294632;28;20035;-70
2023/03/10 03:39:53;;;;;;;2.65;1.83;;;18.10;50.30;;;;;;6276257;28;20055;-70
2023/03/10 03:42:54;;;;;;;3.05;1.70;;;18.20;50.60;;;;;;6293991;28;20079;-70
2023/03/10 03:45:55;;;;;;;2.17;1.70;;;18.10;50.50;;;;;;6268212;28;20125;-70
2023/03/10 03:48:56;;;;;;;2.85;2.03;;;18.10;50.40;;;;;;6269399;28;20025;-70
2023/03/10 03:51:56;;;;;;;2.03;1.60;;;18.10;50.40;;;;;;6274684;28;20288;-70
2023/03/10 03:54:57;;;;;;;1.88;1.60;;;18.10;50.30;;;;;;6276278;28;20512;-70
2023/03/10 03:57:58;;;;;;;2.38;1.83;;;18.10;50.40;;;;;;6294175;28;20386;-70
2023/03/10 04:00:58;;;;;;;2.38;1.70;;;18.10;50.40;;;;;;6275560;28;20197;-70
2023/03/10 04:03:59;;;;;;;2.15;1.75;;;18.10;50.20;;;;;;6293844;28;20496;-70
2023/03/10 04:07:00;;;;;;;2.05;1.70;;;18.10;51.10;;;;;;6293681;28;20028;-70
2023/03/10 04:10:01;;;;;;;2.58;1.77;;;18.10;50.40;;;;;;6293833;28;20035;-70
2023/03/10 04:13:02;;;;;;;2.65;1.80;;;18.10;50.40;;;;;;6293560;28;20029;-70
2023/03/10 04:16:04;;;;;;;2.08;1.63;;;18.10;50.50;;;;;;6293651;28;20040;-70
2023/03/10 04:19:06;;;;;;;2.00;1.55;;;18.10;51.10;;;;;;6294105;28;20028;-70
2023/03/10 04:22:07;;;;;;;2.40;1.70;;;18.10;50.50;;;;;;6293704;28;20099;-70
2023/03/10 04:25:08;;;;;;;2.13;1.50;;;18.10;50.50;;;;;;6293092;28;20513;-70
2023/03/10 04:28:09;;;;;;;3.38;2.10;;;18.10;50.40;;;;;;6293567;28;20028;-70
2023/03/10 04:31:14;;;;;;;2.03;1.50;;;18.10;50.40;;;;;;6275411;28;20558;-70
2023/03/10 04:34:15;;;;;;;1.90;1.48;;;18.10;50.50;;;;;;6293284;28;20036;-70
2023/03/10 04:37:16;;;;;;;2.13;1.33;;;18.10;50.30;;;;;;6293524;28;20060;-70
2023/03/10 04:40:17;;;;;;;2.22;1.50;;;18.10;50.40;;;;;;6293538;28;20021;-70
2023/03/10 04:43:18;;;;;;;2.30;1.27;;;18.10;50.40;;;;;;6275296;28;20032;-70
2023/03/10 04:46:19;;;;;;;2.40;1.70;;;18.10;50.50;;;;;;6293252;28;20033;-70
2023/03/10 04:49:19;;;;;;;1.92;1.45;;;18.10;50.20;;;;;;6275431;28;20031;-70
2023/03/10 04:52:20;;;;;;;2.45;1.80;;;18.10;50.30;;;;;;6293403;28;20028;-70
2023/03/10 04:55:21;;;;;;;1.85;1.30;;;18.10;50.50;;;;;;6293171;28;20031;-70
2023/03/10 04:58:22;;;;;;;2.10;1.60;;;18.10;50.30;;;;;;6293661;28;20024;-70
2023/03/10 05:01:22;;;;;;;1.70;1.23;;;18.10;50.50;;;;;;6292831;28;20504;-70
2023/03/10 05:04:23;;;;;;;2.30;1.58;;;18.10;50.30;;;;;;6274969;28;20027;-70
2023/03/10 05:07:24;;;;;;;2.35;1.65;;;18.10;50.50;;;;;;6293069;28;20012;-70
2023/03/10 05:10:24;;;;;;;1.42;1.33;;;18.10;50.30;;;;;;6292639;28;20088;-70
2023/03/10 05:13:25;;;;;;;1.52;1.40;;;18.10;50.60;;;;;;6266586;28;20548;-70
2023/03/10 05:16:26;;;;;;;1.67;1.13;;;18.10;50.50;;;;;;6267663;28;20025;-70
2023/03/10 05:19:27;;;;;;;1.33;1.13;;;18.10;50.50;;;;;;6292768;28;20025;-70
2023/03/10 05:22:28;;;;;;;1.60;1.42;;;18.10;50.50;;;;;;6292563;28;20020;-70
2023/03/10 05:25:29;;;;;;;1.52;1.38;;;18.10;50.50;;;;;;6295230;28;20043;-70
2023/03/10 05:28:30;;;;;;;1.65;1.40;;;18.10;50.40;;;;;;6279805;28;20051;-69
2023/03/10 05:31:31;;;;;;;1.67;1.33;;;18.20;50.30;;;;;;6298022;28;20025;-70
2023/03/10 05:34:32;;;;;;;1.65;1.40;;;18.20;50.50;;;;;;6279352;28;20108;-70
2023/03/10 05:37:38;;;;;;;2.45;1.80;;;18.20;50.40;;;;;;6297759;28;20025;-70
2023/03/10 05:40:43;;;;;;;1.65;1.48;;;18.20;50.40;;;;;;6297724;28;20020;-69
2023/03/10 05:43:44;;;;;;;1.75;1.23;;;18.20;50.40;;;;;;6297346;28;20112;-70
2023/03/10 05:46:44;;;;;;;1.73;1.20;;;18.20;50.30;;;;;;6296870;28;20040;-70
2023/03/10 05:49:45;;;;;;;1.67;1.33;;;18.20;50.20;;;;;;6297645;28;20047;-71
2023/03/10 05:52:46;;;;;;;1.73;1.38;;;18.20;50.40;;;;;;6297605;28;20028;-70
2023/03/10 05:55:46;;;;;;;2.50;1.52;;;18.20;50.40;;;;;;6279125;28;20021;-70
2023/03/10 05:58:49;;;;;;;1.42;1.00;;;18.20;50.30;;;;;;6297324;28;20028;-70
2023/03/10 06:01:50;;;;;;;1.73;1.42;;;18.20;50.30;;;;;;6296771;28;20052;-70
2023/03/10 06:04:51;;;;;;;1.60;1.30;;;18.20;50.40;;;;;;6296903;28;20420;-70
2023/03/10 06:07:51;;;;;;;2.15;1.38;;;18.20;50.30;;;;;;6295983;28;20024;-70
2023/03/10 06:10:52;;;;;;;1.60;1.20;;;18.20;50.30;;;;;;6296813;28;20031;-70
2023/03/10 06:13:53;;;;;;;1.65;1.10;;;18.20;50.40;;;;;;6296833;28;20024;-70
2023/03/10 06:16:54;;;;;;;1.85;1.20;;;18.20;50.20;;;;;;6296701;28;20520;-70
2023/03/10 06:19:55;;;;;;;1.42;1.17;;;18.20;50.40;;;;;;6295383;28;20024;-71
2023/03/10 06:22:56;;;;;;;1.48;1.20;;;18.20;50.40;;;;;;6267116;28;20028;-70
2023/03/10 06:25:58;;;;;;;1.42;1.08;;;18.20;50.40;;;;;;6295785;28;20082;-70
2023/03/10 06:28:59;;;;;;;1.40;1.20;;;18.20;50.30;;;;;;6273603;28;20017;-70
2023/03/10 06:32:00;;;;;;;1.55;0.88;;;18.20;50.40;;;;;;6289158;28;20020;-70
2023/03/10 06:35:00;;;;;;;2.25;1.33;;;18.20;50.40;;;;;;6308875;28;20031;-70
2023/03/10 06:38:01;;;;;;;1.30;1.10;;;18.20;50.40;;;;;;6303033;28;20477;-70
2023/03/10 06:41:02;;;;;;;3.38;1.65;;;18.20;50.40;;;;;;6296064;28;20044;-71
2023/03/10 06:44:03;;;;;;;2.22;1.30;;;18.20;50.40;;;;;;6299645;28;20674;-70
2023/03/10 06:47:04;;;;;;;2.08;1.23;;;18.20;50.50;;;;;;6302648;28;20027;-70
2023/03/10 06:50:05;;;;;;;1.60;1.15;;;18.20;50.50;;;;;;6320127;28;20024;-70
2023/03/10 06:53:06;;;;;;;1.58;1.20;;;18.20;50.50;;;;;;6320758;28;20032;-69
2023/03/10 06:56:14;;;;;;;2.72;1.20;;;18.20;50.60;;;;;;6317144;28;20119;-70
2023/03/10 06:59:15;;;;;;;1.60;1.15;;;18.20;50.60;;;;;;6314296;28;20107;-70
2023/03/10 07:02:15;;;;;;;3.28;1.00;;;18.20;50.60;;;;;;6273745;28;20359;-70
2023/03/10 07:05:16;;;;;;;1.67;1.10;;;18.20;50.70;;;;;;6296225;28;20024;-70
2023/03/10 07:08:21;;;;;;;2.33;1.27;;;18.20;50.70;;;;;;6296631;28;20032;-70
2023/03/10 07:11:24;;;;;;;1.63;1.13;;;18.20;50.70;;;;;;6298824;28;20028;-70
2023/03/10 07:14:25;;;;;;;2.33;1.30;;;18.20;50.70;;;;;;6303760;28;20100;-70
2023/03/10 07:17:25;;;;;;;1.58;1.00;;;18.20;50.70;;;;;;6313916;28;20094;-70
2023/03/10 07:20:26;;;;;;;1.27;1.10;;;18.20;50.70;;;;;;6289636;28;20024;-69
2023/03/10 07:23:27;;;;;;;3.55;1.42;;;18.20;50.70;;;;;;6321919;28;20453;-69
2023/03/10 07:26:28;;;;;;;4.97;1.42;;;18.20;50.70;;;;;;6297280;28;20036;-70
2023/03/10 07:29:29;;;;;;;2.78;1.20;;;18.20;50.70;;;;;;6280837;28;20025;-69
2023/03/10 07:32:29;;;;;;;1.90;1.20;;;18.20;50.70;;;;;;6296564;28;20100;-70
2023/03/10 07:35:30;;;;;;;1.60;1.27;;;18.20;50.80;;;;;;6295871;28;20074;-70
2023/03/10 07:38:31;;;;;;;1.58;1.17;;;18.20;50.70;;;;;;6296482;28;20052;-70
2023/03/10 07:41:32;;;;;;;1.55;1.25;;;18.20;50.70;;;;;;6296376;28;20017;-70
2023/03/10 07:44:33;;;;;;;1.40;1.20;;;18.20;50.80;;;;;;6295649;28;20047;-70
2023/03/10 07:47:34;;;;;;;1.85;1.20;;;18.20;50.80;;;;;;6277514;28;20442;-69
2023/03/10 07:50:35;;;;;;;1.42;1.23;;;18.20;50.80;;;;;;6277847;28;20409;-70
2023/03/10 07:53:35;;;;;;;2.03;1.15;;;18.30;50.90;;;;;;6295961;28;20033;-70
2023/03/10 07:56:36;;;;;;;1.60;1.15;;;18.20;50.80;;;;;;6319125;28;20031;-70
2023/03/10 07:59:37;;;;;;;2.85;1.27;;;18.20;50.80;;;;;;6288496;28;20060;-69
2023/03/10 08:02:37;;;;;;;1.85;1.38;;;18.20;50.80;;;;;;6319245;28;20472;-69
2023/03/10 08:05:42;;;;;;;1.75;1.13;;;18.20;50.80;;;;;;6304196;28;20025;-69
2023/03/10 08:08:43;;;;;;;1.88;1.10;;;18.20;50.90;;;;;;6296069;28;20052;-70
2023/03/10 08:11:43;;;;;;;1.83;1.10;;;18.20;50.80;;;;;;6279025;28;20389;-70
2023/03/10 08:14:44;;;;;;;1.83;1.30;;;18.20;50.90;;;;;;6295923;28;20498;-70
2023/03/10 08:17:44;;;;;;;2.45;1.30;;;18.30;50.90;;;;;;6294984;28;20079;-73
2023/03/10 08:20:45;;;;;;;1.27;1.05;;;18.20;50.90;;;;;;6282849;28;20480;-70
2023/03/10 08:23:46;;;;;;;2.22;1.50;;;18.30;51.00;;;;;;6320287;28;20304;-70
2023/03/10 08:26:47;;;;;;;1.45;1.00;;;18.30;51.00;;;;;;6320140;28;20042;-70
2023/03/10 08:29:48;;;;;;;1.65;1.10;;;18.30;51.00;;;;;;6302227;28;20024;-70
2023/03/10 08:32:48;;;;;;;1.40;1.25;;;18.30;51.00;;;;;;6319274;28;20085;-70
2023/03/10 08:35:49;;;;;;;1.63;1.15;;;18.20;50.90;;;;;;6295610;28;20066;-70
2023/03/10 08:38:54;;;;;;;1.85;1.25;;;18.30;51.00;;;;;;6300978;28;20111;-70
2023/03/10 08:41:55;;;;;;;;;;;18.30;51.00;;;;;;6279552;28;20024;-70
2023/03/10 08:44:56;;;;;;;1.70;1.27;;;18.30;51.00;;;;;;6295406;28;19919;-70
2023/03/10 08:47:56;;;;;;;2.17;1.23;;;18.30;51.00;;;;;;6284157;28;20047;-70
2023/03/10 08:50:59;;;;;;;1.20;1.02;;;18.20;50.90;;;;;;6294585;28;20485;-69
2023/03/10 08:54:02;;;;;;;2.15;1.45;;;18.20;51.00;;;;;;6294862;28;20432;-70
2023/03/10 08:57:03;;;;;;;2.40;1.13;;;18.30;51.00;;;;;;6294980;28;20527;-70
2023/03/10 09:00:05;;;;;;;1.30;1.02;;;18.20;51.00;;;;;;6313114;28;20020;-70
2023/03/10 09:03:06;;;;;;;2.05;1.17;;;18.30;51.00;;;;;;6285168;28;20402;-70
2023/03/10 09:06:07;;;;;;;1.73;1.30;;;18.30;51.00;;;;;;6294658;28;20032;-70
2023/03/10 09:09:09;;;;;;;1.40;0.98;;;18.30;51.00;;;;;;6294835;28;20028;-70
2023/03/10 09:12:10;;;;;;;1.65;1.13;;;18.30;51.00;;;;;;6295116;28;20028;-70
2023/03/10 09:15:11;;;;;;;1.85;1.27;;;18.30;51.00;;;;;;6309550;28;20024;-70
2023/03/10 09:18:14;;;;;;;1.52;1.17;;;18.30;51.00;;;;;;6293997;28;20101;-71
2023/03/10 09:21:16;;;;;;;1.63;0.90;;;18.30;51.10;;;;;;6276727;28;20052;-70
2023/03/10 09:24:18;;;;;;;2.78;1.30;;;18.30;51.10;;;;;;6299149;28;20077;-70
2023/03/10 09:27:18;;;;;;;1.30;1.00;;;18.30;51.10;;;;;;6319462;28;20051;-70
2023/03/10 09:30:19;;;;;;;1.55;1.02;;;18.30;51.10;;;;;;6319653;28;20029;-69
2023/03/10 09:33:21;;;;;;;1.30;1.05;;;18.30;51.10;;;;;;6319204;28;20700;-70
2023/03/10 09:36:22;;;;;;;1.92;1.15;;;18.30;51.10;;;;;;6271776;28;20028;-70
2023/03/10 09:39:22;;;;;;;1.48;1.00;;;18.30;51.10;;;;;;6294324;28;20035;-70
2023/03/10 09:42:57;;;;;;;1.85;1.02;;;18.30;51.10;;;;;;6293964;28;20028;-70
2023/03/10 09:46:10;;;;;;;2.03;1.00;;;18.30;51.20;;;;;;6284566;28;20036;-70
2023/03/10 09:49:40;;;;;;;1.70;1.27;;;18.30;51.20;;;;;;6299446;28;20486;-70
2023/03/10 09:52:45;;;;;;;1.45;1.02;;;18.30;51.10;;;;;;6292697;28;20036;-70
2023/03/10 09:55:46;;;;;;;1.58;1.17;;;18.30;51.20;;;;;;6294244;28;20469;-71
2023/03/10 09:59:00;;;;;;;1.25;0.98;;;18.30;51.10;;;;;;6275106;28;20028;-70
2023/03/10 10:02:20;;;;;;;1.27;1.00;;;18.30;51.20;;;;;;6295036;28;20017;-69
2023/03/10 10:05:26;;;;;;;2.28;1.40;;;18.30;51.20;;;;;;6270067;28;20057;-70
2023/03/10 10:08:29;;;;;;;1.65;1.15;;;18.30;51.20;;;;;;6289800;28;20077;-70
2023/03/10 10:11:30;;;;;;;4.78;1.25;;;18.30;51.20;;;;;;6282396;28;20478;-70
2023/03/10 10:14:31;;;;;;;1.05;0.90;;;18.30;51.20;;;;;;6291753;28;20027;-71
2023/03/10 10:17:53;;;;;;;3.85;1.20;;;18.30;51.20;;;;;;6299625;28;20029;-71
2023/03/10 10:21:19;;;;;;;1.92;1.40;;;18.30;51.20;;;;;;6305687;28;20020;-71
2023/03/10 10:24:20;;;;;;;2.03;1.30;;;18.30;51.30;;;;;;6307150;28;20111;-71
2023/03/10 10:27:21;;;;;;;1.77;1.08;;;18.30;51.20;;;;;;6298293;28;20021;-70
2023/03/10 10:30:29;;;;;;;5.68;1.25;;;18.30;51.30;;;;;;6316549;28;20481;-71
2023/03/10 10:33:53;;;;;;;5.78;1.55;;;18.30;51.20;;;;;;6303431;28;20036;-70
2023/03/10 10:36:55;;;;;;;3.53;1.80;;;18.30;51.20;;;;;;6275926;28;20115;-71
2023/03/10 10:39:57;;;;;;;7.28;1.88;;;18.30;51.20;;;;;;6281716;28;20031;-71
2023/03/10 10:42:59;;;;;;;4.43;1.85;;;18.30;51.30;;;;;;6323287;28;20033;-71
2023/03/10 10:46:06;;;;;;;5.93;1.98;;;18.30;51.20;;;;;;6322868;28;20076;-71
2023/03/10 10:49:30;;;;;;;5.70;2.40;;;18.30;51.20;;;;;;6280595;28;20074;-71
2023/03/10 10:52:32;;;;;;;8.18;2.70;;;18.30;51.40;;;;;;6298131;28;20020;-71
2023/03/10 10:55:36;;;;;;;12.02;3.33;;;18.30;51.30;;;;;;6314019;28;20158;-71
2023/03/10 10:58:39;;;;;;;8.70;3.30;;;18.30;51.30;;;;;;6322695;28;20533;-70
2023/03/10 11:01:55;;;;;;;8.00;3.58;;;18.30;51.30;;;;;;6255023;28;20033;-71
2023/03/10 11:05:15;;;;;;;11.07;4.13;;;18.30;51.30;;;;;;6271900;28;20024;-72
2023/03/10 11:08:24;;;;;;;10.18;3.88;;;18.30;51.40;;;;;;6304292;28;20026;-71
2023/03/10 11:11:25;;;;;;;12.68;4.72;;;18.30;51.30;;;;;;6304418;28;20504;-72
2023/03/10 11:14:36;;;;;;;14.52;4.82;;;18.30;51.40;;;;;;6321873;28;20034;-71
2023/03/10 11:17:48;;;;;;;15.02;5.10;;;18.30;51.40;;;;;;6322501;28;20028;-72
2023/03/10 11:21:12;;;;;;;17.85;5.65;;;18.30;51.40;;;;;;6322192;28;20032;-71
2023/03/10 11:24:19;;;;;;;13.63;5.07;;;18.30;51.40;;;;;;6298383;28;20032;-71
2023/03/10 11:27:32;;;;;;;18.33;5.75;;;18.30;51.40;;;;;;6277082;28;20032;-72
2023/03/10 11:30:38;;;;;;;16.83;5.85;;;18.30;51.40;;;;;;6321542;28;20020;-71
2023/03/10 11:33:58;;;;;;;22.30;5.50;;;18.30;51.40;;;;;;6319037;28;20035;-71
2023/03/10 11:37:12;;;;;;;12.75;5.13;;;18.30;51.40;;;;;;6319441;28;20032;-72
2023/03/10 11:40:28;;;;;;;16.02;5.68;;;18.30;51.40;;;;;;6291074;28;20465;-71
2023/03/10 11:43:50;;;;;;;14.90;6.00;;;18.30;51.40;;;;;;6303003;28;20439;-71
2023/03/10 11:47:23;;;;;;;15.35;5.57;;;18.30;51.40;;;;;;6279659;28;20597;-71
2023/03/10 11:51:00;;;;;;;16.35;5.65;;;18.30;51.40;;;;;;6281964;28;20481;-74
2023/03/10 11:54:14;;;;;;;14.38;5.47;;;18.30;51.40;;;;;;6198059;28;20493;-75
2023/03/10 11:57:19;;;;;;;13.93;5.35;;;18.30;51.40;;;;;;6272746;28;20398;-74
2023/03/10 12:00:37;;;;;;;17.38;6.32;;;18.30;51.40;;;;;;6305852;28;20134;-74
2023/03/10 12:04:05;;;;;;;20.38;6.97;;;18.30;51.40;;;;;;6294568;28;20024;-74
2023/03/10 12:07:12;;;;;;;15.35;6.15;;;18.30;51.40;;;;;;6302740;28;20362;-74
2023/03/10 12:10:17;;;;;;;15.68;6.45;;;18.30;51.40;;;;;;6302713;28;20024;-74
2023/03/10 12:13:23;;;;;;;;;;;18.30;51.50;;;;;;6303090;28;20024;-74
2023/03/10 12:16:34;;;;;;;16.15;6.13;;;18.30;51.50;;;;;;6290398;28;19914;-74
2023/03/10 12:20:14;;;;;;;15.18;6.00;;;18.30;51.40;;;;;;6290755;28;20032;-74
2023/03/10 12:23:23;;;;;;;17.08;5.80;;;18.30;51.50;;;;;;6267493;28;20029;-74
2023/03/10 12:26:49;;;;;;;18.15;6.20;;;18.30;51.50;;;;;;6279220;28;20049;-74
2023/03/10 12:29:50;;;;;;;15.38;6.13;;;18.30;51.50;;;;;;6265560;28;20045;-75
2023/03/10 12:32:51;;;;;;;17.33;6.07;;;18.30;51.50;;;;;;6263855;28;20025;-74
2023/03/10 12:36:14;;;;;;;14.35;5.78;;;18.30;51.50;;;;;;6288618;28;20025;-74
2023/03/10 12:39:27;;;;;;;14.80;5.70;;;18.30;51.50;;;;;;6295064;28;20393;-74
2023/03/10 12:42:38;;;;;;;13.73;5.70;;;18.30;51.50;;;;;;6277423;28;20500;-75
2023/03/10 12:45:44;;;;;;;15.32;5.82;;;18.30;51.60;;;;;;6277475;28;20485;-74
2023/03/10 12:49:11;;;;;;;15.23;5.97;;;18.40;51.60;;;;;;6268946;28;20485;-74
2023/03/10 12:52:36;;;;;;;14.18;5.70;;;18.40;51.30;;;;;;6240887;28;20035;-73
2023/03/10 12:55:40;;;;;;;16.77;6.03;;;18.40;51.30;;;;;;6277186;28;20445;-75
2023/03/10 12:58:57;;;;;;;16.10;6.83;;;18.40;51.30;;;;;;6281867;28;20062;-74
2023/03/10 13:02:01;;;;;;;15.00;6.07;;;18.50;51.30;;;;;;6276591;28;20087;-74
2023/03/10 13:05:15;;;;;;;15.90;6.32;;;18.50;51.30;;;;;;6293305;28;20032;-74
2023/03/10 13:08:23;;;;;;;17.98;6.15;;;18.50;51.20;;;;;;6319638;28;20031;-73
2023/03/10 13:11:55;;;;;;;10.77;5.25;;;18.50;51.30;;;;;;6299611;28;20120;-74
2023/03/10 13:14:59;;;;;;;17.63;5.82;;;18.50;51.40;;;;;;6290847;28;20113;-73
2023/03/10 13:18:22;;;;;;;12.13;5.53;;;18.50;51.40;;;;;;6294035;28;20547;-74
2023/03/10 13:21:30;;;;;;;13.57;5.55;;;18.50;51.50;;;;;;6293975;28;20580;-74
2023/03/10 13:24:43;;;;;;;11.55;5.10;;;18.40;51.50;;;;;;6293757;28;20047;-74
2023/03/10 13:27:43;;;;;;;15.02;5.78;;;18.40;51.50;;;;;;6293387;28;20032;-74
2023/03/10 13:30:45;;;;;;;13.13;5.32;;;18.40;51.60;;;;;;6287561;28;20017;-74
2023/03/10 13:33:48;;;;;;;13.57;5.50;;;18.40;51.60;;;;;;6302471;28;20482;-74
2023/03/10 13:36:48;;;;;;;11.93;5.20;;;18.40;51.60;;;;;;6287013;28;20131;-74
2023/03/10 13:39:49;;;;;;;11.85;4.95;;;18.40;51.60;;;;;;6281567;28;20029;-74
2023/03/10 13:42:50;;;;;;;11.88;4.55;;;18.40;51.60;;;;;;6288730;28;20039;-75
2023/03/10 13:45:59;;;;;;;9.77;4.47;;;18.40;51.60;;;;;;6280979;28;20377;-75
2023/03/10 13:49:05;;;;;;;9.32;4.50;;;18.40;51.60;;;;;;6297143;28;20051;-74
2023/03/10 13:52:11;;;;;;;11.88;4.90;;;18.40;51.60;;;;;;6249169;28;20021;-74
2023/03/10 13:55:14;;;;;;;11.63;5.40;;;18.40;51.60;;;;;;6272815;28;20060;-74
2023/03/10 13:58:14;;;;;;;13.10;4.95;;;18.40;51.70;;;;;;6281980;28;20051;-76
2023/03/10 14:01:27;;;;;;;10.45;4.93;;;18.40;51.60;;;;;;6300933;28;20449;-75
2023/03/10 14:04:46;;;;;;;10.93;4.72;;;18.40;51.60;;;;;;6297857;28;20056;-74
2023/03/10 14:07:58;;;;;;;9.07;4.45;;;18.40;51.70;;;;;;6304058;28;20016;-72
2023/03/10 14:11:22;;;;;;;10.43;4.43;;;18.40;51.70;;;;;;6255657;28;20072;-72
2023/03/10 14:14:34;;;;;;;10.48;4.28;;;18.40;51.70;;;;;;6299710;28;20103;-74
2023/03/10 14:17:36;;;;;;;10.32;3.88;;;18.40;51.90;;;;;;6323207;28;20039;-74
2023/03/10 14:20:39;;;;;;;10.77;4.03;;;18.40;51.70;;;;;;6318990;28;20034;-74
2023/03/10 14:23:40;;;;;;;9.90;4.10;;;18.40;51.70;;;;;;6278307;28;20020;-73
2023/03/10 14:26:42;;;;;;;11.52;4.10;;;18.40;51.70;;;;;;6297035;28;20417;-74
2023/03/10 14:29:50;;;;;;;8.18;3.63;;;18.40;51.70;;;;;;6309672;28;20024;-74
2023/03/10 14:32:51;;;;;;;8.77;3.85;;;18.40;51.70;;;;;;6323075;28;20487;-75
2023/03/10 14:35:52;;;;;;;9.38;3.85;;;18.40;51.70;;;;;;6281392;28;20052;-75
2023/03/10 14:38:53;;;;;;;7.80;3.38;;;18.40;51.70;;;;;;6273640;28;20023;-74
2023/03/10 14:41:55;;;;;;;8.23;3.65;;;18.40;51.80;;;;;;6303479;28;20481;-74
2023/03/10 14:45:02;;;;;;;8.82;4.13;;;18.40;51.70;;;;;;6322572;28;20025;-73
2023/03/10 14:48:16;;;;;;;5.38;3.00;;;18.40;51.70;;;;;;6301470;28;20024;-75
2023/03/10 14:51:18;;;;;;;7.30;3.10;;;18.40;51.80;;;;;;6297328;28;20074;-73
2023/03/10 14:54:22;;;;;;;8.57;3.88;;;18.40;51.80;;;;;;6317236;28;20401;-74
2023/03/10 14:57:23;;;;;;;7.43;3.08;;;18.40;51.80;;;;;;6321975;28;20488;-74
2023/03/10 15:00:24;;;;;;;8.27;3.25;;;18.40;51.80;;;;;;6292958;28;20020;-74
2023/03/10 15:03:24;;;;;;;6.68;3.38;;;18.40;51.80;;;;;;6322048;28;20115;-74
2023/03/10 15:06:25;;;;;;;5.40;2.88;;;18.40;51.80;;;;;;6303639;28;20055;-74
2023/03/10 15:09:26;;;;;;;7.20;2.80;;;18.40;51.80;;;;;;6319417;28;20048;-73
2023/03/10 15:12:27;;;;;;;6.85;3.40;;;18.40;52.40;;;;;;6321359;28;20072;-76
2023/03/10 15:15:38;;;;;;;7.30;3.20;;;18.40;51.80;;;;;;6302144;28;20081;-75
2023/03/10 15:18:39;;;;;;;5.55;2.95;;;18.40;51.80;;;;;;6314202;28;20093;-76
2023/03/10 15:21:40;;;;;;;6.95;3.20;;;18.40;51.80;;;;;;6305579;28;20029;-76
2023/03/10 15:24:41;;;;;;;5.75;2.72;;;18.40;51.80;;;;;;6277097;28;20045;-76
2023/03/10 15:27:42;;;;;;;5.93;2.83;;;18.40;51.80;;;;;;6302492;28;20020;-76
2023/03/10 15:30:43;;;;;;;5.50;2.50;;;18.40;51.80;;;;;;6303421;28;20023;-76
2023/03/10 15:33:44;;;;;;;8.82;3.28;;;18.40;51.80;;;;;;6285659;28;20021;-75
2023/03/10 15:36:45;;;;;;;4.95;2.47;;;18.40;51.80;;;;;;6310679;28;20020;-71
2023/03/10 15:39:45;;;;;;;6.95;3.00;;;18.40;51.80;;;;;;6295291;28;20413;-71
2023/03/10 15:42:46;;;;;;;5.20;2.70;;;18.40;51.90;;;;;;6295981;28;20024;-70
2023/03/10 15:45:50;;;;;;;8.48;3.97;;;18.40;51.60;;;;;;6295720;28;20500;-72
2023/03/10 15:48:51;;;;;;;6.90;3.55;;;18.30;50.30;;;;;;6288956;28;20028;-71
2023/03/10 15:51:51;;;;;;;7.65;3.75;;;18.30;50.10;;;;;;6300033;28;20405;-71
2023/03/10 15:54:52;;;;;;;6.22;3.97;;;18.30;48.80;;;;;;6289581;28;20025;-73
2023/03/10 15:57:54;;;;;;;6.15;4.05;;;18.30;47.70;;;;;;6302290;28;20059;-73
2023/03/10 16:00:55;;;;;;;5.95;4.07;;;18.30;47.30;;;;;;6304228;28;20465;-73